Time;durP1;ratioP1;P1;durP2;ratioP2;P2;SDS_P1;SDS_P2;PMS_P1;PMS_P2;Temp;Humidity;BMP_temperature;BMP_pressure;BME280_temperature;BME280_humidity;BME280_pressure;Samples;Min_cycle;Max_cycle;Signal;HPM_P1;HPM_P2
2021/11/09 00:01:03;;;;;;;6.67;3.25;;;;;;;7.83;62.44;100138.14;355507;147;859405;-54
2021/11/09 00:02:05;;;;;;;4.87;3.30;;;;;;;7.88;62.43;100141.61;358483;146;859744;-54
2021/11/09 00:03:11;;;;;;;5.80;3.27;;;;;;;7.90;62.37;100142.48;356935;149;864727;-55
2021/11/09 00:04:10;;;;;;;5.53;3.12;;;;;;;7.89;62.38;100148.49;353007;148;856932;-55
2021/11/09 00:05:15;;;;;;;6.76;3.05;;;;;;;7.81;62.75;100144.16;354247;146;867459;-55
2021/11/09 00:06:21;;;;;;;3.91;2.44;;;;;;;7.86;62.72;100147.62;357205;146;859322;-55
2021/11/09 00:08:25;;;;;;;6.11;2.89;;;;;;;7.92;62.45;100142.52;354589;150;864914;-55
2021/11/09 00:09:29;;;;;;;4.94;3.08;;;;;;;7.86;62.68;100140.74;358486;150;857270;-55
2021/11/09 00:10:30;;;;;;;7.48;4.08;;;;;;;7.89;62.63;100145.91;354456;146;865495;-55
2021/11/09 00:11:32;;;;;;;5.47;2.87;;;;;;;7.82;62.97;100138.15;355827;148;857322;-55
2021/11/09 00:12:43;;;;;;;6.75;3.45;;;;;;;7.83;62.94;100153.61;358009;146;859020;-55
2021/11/09 00:13:45;;;;;;;8.73;3.58;;;;;;;7.87;62.75;100145.05;353789;146;857259;-55
2021/11/09 00:14:47;;;;;;;4.49;3.11;;;;;;;7.74;63.34;100146.70;353196;148;857274;-54
2021/11/09 00:15:49;;;;;;;5.66;3.52;;;;;;;7.57;63.80;100151.72;356333;150;857327;-54
2021/11/09 00:16:51;;;;;;;6.89;3.33;;;;;;;7.72;63.42;100144.95;358861;150;864910;-56
2021/11/09 00:17:53;;;;;;;7.91;3.56;;;;;;;;;;353992;146;864892;-54
2021/11/09 00:18:55;;;;;;;7.43;3.30;;;;;;;;;;354463;150;866057;-55
2021/11/09 00:19:57;;;;;;;7.96;3.36;;;;;;;;;;358362;150;866273;-55
2021/11/09 00:20:58;;;;;;;6.45;3.58;;;;;;;;;;353958;146;866282;-55
2021/11/09 00:22:00;;;;;;;5.89;2.46;;;;;;;;;;355262;146;858943;-54
2021/11/09 00:23:04;;;;;;;8.39;3.87;;;;;;;;;;354414;146;865027;-54
2021/11/09 00:24:05;;;;;;;6.03;3.61;;;;;;;;;;355921;146;858699;-54
2021/11/09 00:25:07;;;;;;;7.24;3.92;;;;;;;;;;355110;148;858958;-56
2021/11/09 00:26:10;;;;;;;9.13;3.58;;;;;;;;;;355806;146;865314;-54
2021/11/09 00:27:11;;;;;;;5.96;3.49;;;;;;;;;;354212;150;858109;-55
2021/11/09 00:28:13;;;;;;;4.90;3.24;;;;;;;;;;355011;146;857394;-55
2021/11/09 00:29:15;;;;;;;5.54;3.29;;;;;;;;;;354336;148;857424;-56
2021/11/09 00:30:17;;;;;;;5.79;3.29;;;;;;;;;;356430;150;865429;-55
2021/11/09 00:31:19;;;;;;;9.09;3.61;;;;;;;;;;354539;146;866673;-54
2021/11/09 00:32:20;;;;;;;6.09;3.26;;;;;;;;;;355514;147;864765;-55
2021/11/09 00:33:22;;;;;;;8.40;3.74;;;;;;;;;;357852;150;859201;-54
2021/11/09 00:34:24;;;;;;;6.86;3.40;;;;;;;;;;354614;146;864912;-56
2021/11/09 00:35:26;;;;;;;7.23;3.34;;;;;;;;;;351564;149;858781;-54
2021/11/09 00:36:28;;;;;;;4.49;2.82;;;;;;;;;;349655;150;857798;-55
2021/11/09 00:37:30;;;;;;;4.73;3.13;;;;;;;;;;355251;146;857159;-55
2021/11/09 00:38:31;;;;;;;5.84;3.07;;;;;;;;;;354681;148;857374;-54
2021/11/09 00:39:33;;;;;;;5.57;3.67;;;;;;;;;;354998;147;858562;-55
2021/11/09 00:40:35;;;;;;;6.75;3.71;;;;;;;;;;354426;150;859467;-54
2021/11/09 00:41:37;;;;;;;6.89;3.61;;;;;;;;;;355399;150;865728;-55
2021/11/09 00:42:38;;;;;;;10.25;3.59;;;;;;;;;;354827;148;858772;-55
2021/11/09 00:43:40;;;;;;;4.13;3.24;;;;;;;;;;355298;148;858780;-55
2021/11/09 00:44:41;;;;;;;5.32;3.27;;;;;;;;;;359065;147;862055;-55
2021/11/09 00:45:43;;;;;;;5.59;3.05;;;;;;;;;;357613;148;864906;-54
2021/11/09 00:46:45;;;;;;;7.13;3.30;;;;;;;;;;355801;147;864814;-55
2021/11/09 00:47:47;;;;;;;4.79;2.96;;;;;;;;;;356328;150;857271;-54
2021/11/09 00:48:48;;;;;;;6.41;3.76;;;;;;;;;;357191;146;859131;-55
2021/11/09 00:49:50;;;;;;;7.06;3.40;;;;;;;;;;356744;147;857606;-55
2021/11/09 00:50:53;;;;;;;5.36;3.49;;;;;;;;;;355419;148;857125;-55
2021/11/09 00:51:55;;;;;;;7.79;3.81;;;;;;;;;;356163;150;864777;-55
2021/11/09 00:52:56;;;;;;;7.72;3.51;;;;;;;;;;356368;146;857181;-55
2021/11/09 00:53:58;;;;;;;5.14;3.39;;;;;;;;;;356548;147;859133;-54
2021/11/09 00:55:00;;;;;;;6.35;3.17;;;;;;;;;;359100;146;857503;-55
2021/11/09 00:56:01;;;;;;;6.24;3.83;;;;;;;;;;357556;146;860119;-54
2021/11/09 00:57:03;;;;;;;8.99;4.29;;;;;;;;;;354297;148;857249;-54
2021/11/09 00:58:06;;;;;;;9.37;3.79;;;;;;;;;;355758;147;857021;-54
2021/11/09 00:59:08;;;;;;;5.11;3.70;;;;;;;;;;355153;148;857161;-54
2021/11/09 01:00:13;;;;;;;9.12;4.37;;;;;;;;;;355754;146;857328;-57
2021/11/09 01:01:15;;;;;;;7.84;3.63;;;;;;;;;;355121;147;857688;-54
2021/11/09 01:02:17;;;;;;;8.92;4.24;;;;;;;;;;356273;150;857724;-54
2021/11/09 01:03:18;;;;;;;4.71;3.27;;;;;;;;;;355993;148;865966;-57
2021/11/09 01:04:20;;;;;;;9.13;4.08;;;;;;;;;;356005;148;857744;-55
2021/11/09 01:05:25;;;;;;;5.61;3.27;;;;;;;;;;355537;149;866487;-55
2021/11/09 01:06:28;;;;;;;9.37;3.45;;;;;;;;;;355297;149;864739;-52
2021/11/09 01:07:29;;;;;;;7.21;3.54;;;;;;;;;;355850;146;857774;-56
2021/11/09 01:08:31;;;;;;;11.75;3.80;;;;;;;;;;356109;147;868332;-54
2021/11/09 01:09:33;;;;;;;7.00;3.72;;;;;;;;;;356455;149;860200;-55
2021/11/09 01:10:36;;;;;;;6.71;3.25;;;;;;;;;;357004;146;864792;-55
2021/11/09 01:11:37;;;;;;;6.47;3.77;;;;;;;;;;355378;148;857271;-55
2021/11/09 01:12:39;;;;;;;7.28;3.70;;;;;;;;;;357696;149;864653;-54
2021/11/09 01:13:40;;;;;;;7.39;3.45;;;;;;;;;;357285;146;866285;-54
2021/11/09 01:14:43;;;;;;;5.09;3.45;;;;;;;;;;355881;147;865747;-55
2021/11/09 01:15:51;;;;;;;7.46;3.84;;;;;;;;;;355240;149;865563;-54
2021/11/09 01:16:53;;;;;;;5.76;3.49;;;;;;;;;;355845;146;857263;-55
2021/11/09 01:17:57;;;;;;;5.95;3.36;;;;;;;;;;356178;147;857356;-54
2021/11/09 01:19:00;;;;;;;5.20;3.10;;;;;;;;;;358191;147;865488;-54
2021/11/09 01:20:03;;;;;;;4.59;3.22;;;;;;;;;;354860;149;857160;-55
2021/11/09 01:21:04;;;;;;;6.57;3.28;;;;;;;;;;355256;146;864936;-54
2021/11/09 01:22:06;;;;;;;6.81;3.25;;;;;;;;;;355688;148;857216;-54
2021/11/09 01:23:08;;;;;;;5.72;3.29;;;;;;;;;;356099;149;865644;-55
2021/11/09 01:24:11;;;;;;;6.39;3.53;;;;;;;;;;356134;146;857873;-55
2021/11/09 01:25:13;;;;;;;6.04;3.54;;;;;;;;;;357448;147;866589;-54
2021/11/09 01:26:15;;;;;;;4.51;3.06;;;;;;;;;;356593;148;857315;-56
2021/11/09 01:27:17;;;;;;;5.99;2.97;;;;;;;;;;357119;149;857316;-55
2021/11/09 01:28:19;;;;;;;3.01;2.25;;;;;;;;;;355268;146;857874;-55
2021/11/09 01:29:21;;;;;;;6.16;2.74;;;;;;;;;;356585;147;857163;-55
2021/11/09 01:30:24;;;;;;;6.19;2.97;;;;;;;;;;355707;149;864763;-55
2021/11/09 01:31:25;;;;;;;6.19;2.59;;;;;;;;;;358295;146;859248;-55
2021/11/09 01:32:27;;;;;;;4.23;2.26;;;;;;;;;;355990;148;857197;-54
2021/11/09 01:33:29;;;;;;;4.03;2.54;;;;;;;;;;358077;147;864939;-55
2021/11/09 01:42:05;;;;;;;3.56;1.87;;;;;;;7.26;64.25;100200.41;372721;142;881787;-54
2021/11/09 01:43:07;;;;;;;3.20;1.79;;;;;;;7.14;64.26;100195.98;363164;145;858122;-56
2021/11/09 01:44:08;;;;;;;2.91;1.90;;;;;;;7.12;64.35;100196.83;362120;146;865451;-56
2021/11/09 01:45:11;;;;;;;5.52;1.79;;;;;;;7.18;64.25;100202.04;361948;146;865555;-55
2021/11/09 01:46:14;;;;;;;3.31;1.73;;;;;;;7.26;64.17;100207.25;361787;145;868367;-54
2021/11/09 01:47:16;;;;;;;2.95;1.91;;;;;;;7.25;64.09;100205.52;366062;145;858547;-54
2021/11/09 01:48:17;;;;;;;2.40;1.80;;;;;;;7.32;63.93;100204.73;366821;146;858733;-54
2021/11/09 01:49:19;;;;;;;3.75;1.84;;;;;;;7.35;63.77;100202.19;363997;146;866565;-55
2021/11/09 01:50:26;;;;;;;4.04;1.72;;;;;;;7.39;63.53;100205.67;361340;145;858983;-55
2021/11/09 01:51:29;;;;;;;2.29;1.82;;;;;;;7.30;63.64;100209.00;363141;147;857156;-54
2021/11/09 01:52:31;;;;;;;2.08;1.38;;;;;;;7.19;63.91;100205.46;360939;146;857171;-55
2021/11/09 01:53:33;;;;;;;3.29;1.51;;;;;;;7.19;64.04;100208.92;363742;145;858916;-55
2021/11/09 01:54:35;;;;;;;2.51;1.46;;;;;;;7.17;63.82;100208.04;362488;146;858010;-54
2021/11/09 01:55:37;;;;;;;1.26;1.12;;;;;;;7.21;63.71;100206.34;364270;145;859871;-57
2021/11/09 01:56:39;;;;;;;2.43;1.54;;;;;;;7.18;63.63;100207.19;364031;144;857893;-55
2021/11/09 01:57:42;;;;;;;3.97;1.45;;;;;;;7.21;63.67;100206.34;364129;145;865945;-55
2021/11/09 01:58:44;;;;;;;2.37;1.46;;;;;;;6.83;63.99;100211.09;363455;147;857288;-54
2021/11/09 01:59:46;;;;;;;2.77;1.20;;;;;;;6.82;64.71;100214.52;361197;146;859134;-54
2021/11/09 02:00:51;;;;;;;1.76;1.31;;;;;;;6.85;64.59;100214.55;360830;147;858208;-54
2021/11/09 02:01:53;;;;;;;3.99;1.32;;;;;;;6.83;64.73;100213.67;353291;149;865014;-54
2021/11/09 02:02:56;;;;;;;2.10;1.39;;;;;;;6.82;64.58;100217.09;357853;147;858417;-54
2021/11/09 02:04:01;;;;;;;3.48;1.28;;;;;;;6.72;65.10;100220.40;357086;147;857843;-54
2021/11/09 02:05:03;;;;;;;3.12;1.36;;;;;;;6.77;64.91;100225.59;354531;147;857265;-54
2021/11/09 02:06:06;;;;;;;2.38;1.27;;;;;;;6.65;65.15;100227.16;357024;148;857415;-53
2021/11/09 02:07:08;;;;;;;2.53;1.07;;;;;;;6.67;65.03;100220.33;356177;148;857409;-55
2021/11/09 02:08:09;;;;;;;2.55;1.34;;;;;;;6.71;64.78;100227.24;358429;147;857344;-54
2021/11/09 02:09:13;;;;;;;1.31;1.09;;;;;;;6.66;64.98;100221.17;358354;148;864919;-54
2021/11/09 02:10:16;;;;;;;1.37;1.15;;;;;;;6.66;65.07;100228.05;356121;147;864675;-54
2021/11/09 02:11:19;;;;;;;1.06;0.94;;;;;;;6.64;64.77;100232.31;356331;147;857799;-54
2021/11/09 02:12:21;;;;;;;1.57;1.17;;;;;;;6.70;64.79;100229.81;355086;147;857745;-54
2021/11/09 02:13:23;;;;;;;1.51;0.97;;;;;;;6.76;64.81;100226.44;359394;149;857745;-54
2021/11/09 02:14:25;;;;;;;2.03;1.11;;;;;;;6.81;64.69;100223.09;356569;147;857076;-57
2021/11/09 02:15:28;;;;;;;1.95;1.19;;;;;;;6.85;64.23;100232.57;355910;147;857480;-57
2021/11/09 02:16:30;;;;;;;1.21;1.04;;;;;;;6.84;64.40;100232.53;357616;147;857472;-57
2021/11/09 02:17:36;;;;;;;1.83;1.01;;;;;;;6.86;63.97;100229.15;357555;148;858244;-54
2021/11/09 02:18:37;;;;;;;1.07;0.75;;;;;;;6.92;64.03;100238.67;356420;147;857855;-55
2021/11/09 02:19:39;;;;;;;1.91;0.99;;;;;;;6.94;63.05;100228.38;355495;150;857523;-54
2021/11/09 02:20:54;;;;;;;1.79;1.09;;;;;;;6.87;63.09;100227.42;357695;147;857502;-54
2021/11/09 02:21:56;;;;;;;1.56;0.85;;;;;;;6.77;63.58;100231.62;357364;147;857217;-55
2021/11/09 02:23:20;;;;;;;2.06;1.01;;;;;;;6.76;63.68;100231.58;356450;149;861385;-55
2021/11/09 02:24:21;;;;;;;1.10;0.88;;;;;;;6.79;63.47;100231.62;346681;152;858515;-55
2021/11/09 02:25:24;;;;;;;2.24;0.91;;;;;;;6.76;63.23;100236.73;342960;152;857946;-55
2021/11/09 02:26:26;;;;;;;1.84;1.06;;;;;;;6.75;63.23;100242.72;343839;154;857198;-55
2021/11/09 02:27:28;;;;;;;1.35;1.00;;;;;;;6.71;63.39;100244.41;347769;154;857199;-55
2021/11/09 02:28:30;;;;;;;1.25;0.98;;;;;;;6.71;63.73;100240.11;344651;152;857869;-55
2021/11/09 02:29:33;;;;;;;2.63;0.96;;;;;;;6.74;63.69;100241.88;346151;152;858301;-54
2021/11/09 02:30:35;;;;;;;2.12;0.86;;;;;;;6.71;63.64;100249.55;347483;154;859387;-55
2021/11/09 02:31:37;;;;;;;2.67;1.01;;;;;;;6.76;63.60;100247.02;346943;152;859003;-54
2021/11/09 02:32:39;;;;;;;1.20;1.10;;;;;;;6.51;64.10;100241.56;344903;152;857263;-54
2021/11/09 02:33:41;;;;;;;1.16;0.81;;;;;;;6.50;64.22;100244.98;342487;154;864786;-54
2021/11/09 02:34:43;;;;;;;1.10;1.00;;;;;;;6.56;64.29;100251.09;343301;152;864964;-55
2021/11/09 02:35:45;;;;;;;2.20;0.92;;;;;;;6.63;64.27;100249.44;344396;152;857580;-55
2021/11/09 02:36:47;;;;;;;2.53;1.12;;;;;;;6.70;64.01;100255.55;345172;152;865237;-54
2021/11/09 02:37:50;;;;;;;2.04;1.11;;;;;;;6.56;64.21;100256.23;344413;154;858727;-55
2021/11/09 02:38:52;;;;;;;1.76;1.09;;;;;;;6.65;64.27;100257.20;343742;152;857474;-55
2021/11/09 02:39:54;;;;;;;1.33;1.02;;;;;;;6.59;64.33;100252.81;344886;152;864920;-54
2021/11/09 02:40:57;;;;;;;1.94;1.01;;;;;;;6.52;64.34;100259.61;346896;152;858524;-55
2021/11/09 02:41:59;;;;;;;1.74;0.84;;;;;;;6.50;64.71;100263.86;351689;152;857279;-54
2021/11/09 02:43:05;;;;;;;2.41;1.07;;;;;;;6.56;64.63;100258.80;346890;151;857380;-55
2021/11/09 02:44:07;;;;;;;2.93;1.01;;;;;;;6.64;64.16;100268.33;351063;152;858673;-55
2021/11/09 02:45:16;;;;;;;2.99;1.27;;;;;;;6.64;63.51;100274.33;347055;155;858207;-55
2021/11/09 02:47:27;;;;;;;1.44;1.11;;;;;;;6.46;63.27;100264.67;347781;151;857704;-55
2021/11/09 02:48:36;;;;;;;2.09;0.97;;;;;;;6.54;62.74;100269.90;347589;152;857742;-54
2021/11/09 02:49:52;;;;;;;1.43;0.71;;;;;;;6.58;62.50;100271.67;348136;151;859313;-54
2021/11/09 02:50:42;;;;;;;0.96;0.78;;;;;;;;;;347128;151;859685;-55
2021/11/09 02:51:46;;;;;;;1.41;0.88;;;;;;;;;;346688;152;857739;-56
2021/11/09 02:52:53;;;;;;;2.40;0.85;;;;;;;;;;347132;152;864886;-55
2021/11/09 02:54:13;;;;;;;1.44;0.80;;;;;;;;;;347210;151;857266;-55
2021/11/09 02:55:03;;;;;;;1.63;0.98;;;;;;;;;;341986;152;864694;-55
2021/11/09 02:56:09;;;;;;;1.17;0.80;;;;;;;;;;347378;151;857971;-55
2021/11/09 02:57:10;;;;;;;1.36;0.77;;;;;;;;;;347918;151;858702;-55
2021/11/09 03:01:00;;;;;;;2.11;0.82;;;;;;;;;;346602;151;857285;-55
2021/11/09 03:03:02;;;;;;;0.74;0.66;;;;;;;;;;347070;152;865297;-55
2021/11/09 03:04:14;;;;;;;3.28;0.93;;;;;;;;;;347772;152;859322;-55
2021/11/09 03:05:24;;;;;;;1.17;0.90;;;;;;;;;;347986;151;857159;-55
2021/11/09 03:08:48;;;;;;;0.80;0.77;;;;;;;;;;346202;152;857334;-55
2021/11/09 03:09:55;;;;;;;1.01;0.85;;;;;;;;;;347772;154;866592;-55
2021/11/09 03:10:52;;;;;;;1.13;0.75;;;;;;;;;;347508;151;858232;-56
2021/11/09 03:12:00;;;;;;;1.84;1.02;;;;;;;;;;347971;151;864729;-56
2021/11/09 03:12:57;;;;;;;1.58;1.00;;;;;;;;;;346878;152;857727;-55
2021/11/09 03:13:59;;;;;;;1.11;0.94;;;;;;;;;;346793;152;860433;-55
2021/11/09 03:15:01;;;;;;;1.66;1.00;;;;;;;;;;348450;151;865284;-55
2021/11/09 03:16:08;;;;;;;1.40;0.81;;;;;;;;;;346782;151;857575;-56
2021/11/09 03:17:16;;;;;;;3.19;1.24;;;;;;;;;;347531;151;864885;-55
2021/11/09 03:18:14;;;;;;;1.46;0.89;;;;;;;;;;347169;151;856164;-54
2021/11/09 03:19:33;;;;;;;1.57;1.02;;;;;;;;;;347235;151;856802;-55
2021/11/09 03:40:08;;;;;;;0.91;0.84;;;;;;;5.70;64.28;100300.28;362110;147;859766;-55
2021/11/09 03:45:10;;;;;;;;;;;;;;;5.80;64.43;100305.58;366641;147;857602;-55
2021/11/09 03:46:12;;;;;;;1.34;0.84;;;;;;;5.47;65.78;100316.98;361850;147;857571;-60
2021/11/09 03:47:16;;;;;;;1.61;1.09;;;;;;;5.61;65.30;100322.36;361769;146;857425;-55
2021/11/09 03:48:18;;;;;;;3.92;0.99;;;;;;;;;;362681;146;856406;-56
2021/11/09 03:49:21;;;;;;;1.05;0.83;;;;;;;;;;364415;147;863831;-57
2021/11/09 03:50:25;;;;;;;1.71;1.02;;;;;;;;;;362150;147;857585;-55
2021/11/09 03:51:27;;;;;;;2.31;1.21;;;;;;;;;;362617;144;858726;-55
2021/11/09 03:52:31;;;;;;;1.49;1.08;;;;;;;;;;359827;147;859844;-54
2021/11/09 03:53:34;;;;;;;1.45;0.99;;;;;;;;;;359462;146;858823;-55
2021/11/09 03:54:36;;;;;;;2.71;1.09;;;;;;;;;;362600;146;857017;-54
2021/11/09 03:56:00;;;;;;;1.68;1.20;;;;;;;;;;363300;147;859749;-55
2021/11/09 03:56:56;;;;;;;2.34;1.17;;;;;;;;;;362975;147;857464;-53
2021/11/09 03:59:01;;;;;;;1.56;0.99;;;;;;;;;;357444;147;859090;-54
2021/11/09 04:01:11;;;;;;;2.19;1.26;;;;;;;;;;363524;147;857700;-54
2021/11/09 04:05:56;;;;;;;1.34;0.91;;;;;;;;;;362786;146;858032;-54
2021/11/09 04:07:13;;;;;;;1.83;0.99;;;;;;;;;;364030;147;864789;-54
2021/11/09 04:08:30;;;;;;;2.20;0.87;;;;;;;;;;354475;150;865327;-57
2021/11/09 04:09:32;;;;;;;2.68;1.36;;;;;;;;;;360047;147;857549;-53
2021/11/09 04:10:54;;;;;;;2.89;1.18;;;;;;;;;;361288;147;859164;-53
2021/11/09 04:12:09;;;;;;;1.57;0.97;;;;;;;;;;361739;144;857719;-54
2021/11/09 04:13:24;;;;;;;1.43;1.20;;;;;;;;;;359563;147;857607;-55
2021/11/09 04:14:19;;;;;;;2.22;1.00;;;;;;;;;;357260;147;857069;-56
2021/11/09 04:15:29;;;;;;;1.91;1.07;;;;;;;;;;363417;145;857824;-56
2021/11/09 04:16:38;;;;;;;1.57;1.07;;;;;;;;;;362663;147;857211;-55
2021/11/09 04:20:08;;;;;;;1.16;0.98;;;;;;;;;;362178;146;858574;-54
2021/11/09 04:21:10;;;;;;;1.71;1.09;;;;;;;;;;359422;147;857250;-54
2021/11/09 04:23:53;;;;;;;1.28;1.14;;;;;;;;;;361709;146;857288;-56
2021/11/09 04:26:07;;;;;;;2.80;1.06;;;;;;;;;;361350;146;857880;-54
2021/11/09 04:27:05;;;;;;;2.07;1.19;;;;;;;;;;361551;146;865091;-54
2021/11/09 04:28:05;;;;;;;2.42;0.93;;;;;;;;;;363288;147;857643;-54
2021/11/09 04:29:17;;;;;;;2.04;1.20;;;;;;;;;;361767;148;857284;-53
2021/11/09 04:30:26;;;;;;;2.11;1.17;;;;;;;;;;360617;147;857209;-55
2021/11/09 04:41:08;;;;;;;1.86;1.28;;;;;;;;;;362976;146;857728;-56
2021/11/09 05:01:12;;;;;;;2.08;1.48;;;;;;;;;;360572;148;859136;-56
2021/11/09 05:08:38;;;;;;;1.89;1.29;;;;;;;;;;364987;145;857315;-58
2021/11/09 05:09:40;;;;;;;4.04;1.41;;;;;;;;;;362690;146;865766;-59
2021/11/09 05:10:42;;;;;;;2.45;1.63;;;;;;;;;;360193;148;864555;-58
2021/11/09 05:11:44;;;;;;;2.33;1.61;;;;;;;;;;360683;148;857303;-57
2021/11/09 05:12:45;;;;;;;1.99;1.44;;;;;;;;;;361918;147;857304;-57
2021/11/09 05:13:47;;;;;;;2.76;1.71;;;;;;;;;;358630;148;857404;-58
2021/11/09 05:14:49;;;;;;;2.47;1.51;;;;;;;;;;362640;148;857432;-58
2021/11/09 05:15:51;;;;;;;1.59;1.11;;;;;;;;;;360016;147;859148;-60
2021/11/09 05:16:52;;;;;;;1.76;1.41;;;;;;;;;;360803;147;859262;-61
2021/11/09 05:17:54;;;;;;;2.74;1.97;;;;;;;;;;360866;148;865690;-60
2021/11/09 05:18:56;;;;;;;2.62;1.30;;;;;;;;;;360490;147;859219;-59
2021/11/09 05:19:58;;;;;;;2.05;1.32;;;;;;;;;;361687;147;864893;-59
2021/11/09 05:21:00;;;;;;;2.19;1.47;;;;;;;;;;362417;148;857192;-57
2021/11/09 05:22:02;;;;;;;2.12;1.71;;;;;;;;;;359774;148;864962;-59
2021/11/09 05:23:03;;;;;;;3.91;1.49;;;;;;;;;;364044;145;857111;-57
2021/11/09 05:24:06;;;;;;;1.31;1.17;;;;;;;;;;363037;146;864337;-55
2021/11/09 05:25:08;;;;;;;2.15;1.56;;;;;;;;;;360165;147;858315;-57
2021/11/09 05:26:10;;;;;;;1.70;1.31;;;;;;;;;;360421;147;857951;-60
2021/11/09 05:27:15;;;;;;;2.41;1.65;;;;;;;;;;363799;146;859112;-56
2021/11/09 05:28:15;;;;;;;2.43;1.41;;;;;;;;;;360312;147;864448;-56
2021/11/09 05:29:17;;;;;;;1.57;1.47;;;;;;;;;;362411;147;859796;-55
2021/11/09 05:30:21;;;;;;;2.29;1.62;;;;;;;;;;361948;146;864921;-55
2021/11/09 05:31:23;;;;;;;2.21;2.00;;;;;;;;;;363411;147;858763;-56
2021/11/09 05:32:25;;;;;;;3.19;1.65;;;;;;;;;;363415;147;858230;-53
2021/11/09 05:33:27;;;;;;;4.55;1.61;;;;;;;;;;362570;147;864526;-53
2021/11/09 05:34:30;;;;;;;2.69;1.60;;;;;;;;;;362158;146;865206;-53
2021/11/09 05:35:32;;;;;;;1.98;1.61;;;;;;;;;;359610;147;860070;-54
2021/11/09 05:36:37;;;;;;;1.85;1.73;;;;;;;;;;361150;147;859249;-54
2021/11/09 05:37:42;;;;;;;3.16;1.67;;;;;;;;;;362476;147;858239;-54
2021/11/09 05:38:48;;;;;;;2.76;1.46;;;;;;;;;;362696;147;864966;-55
2021/11/09 05:39:51;;;;;;;1.51;1.41;;;;;;;;;;363876;147;857241;-54
2021/11/09 05:40:57;;;;;;;2.30;1.52;;;;;;;;;;363769;146;859630;-54
2021/11/09 05:41:57;;;;;;;2.04;1.61;;;;;;;;;;359648;147;866400;-57
2021/11/09 05:42:59;;;;;;;2.38;1.42;;;;;;;;;;362566;147;859470;-57
2021/11/09 05:44:00;;;;;;;1.96;1.46;;;;;;;;;;361255;147;864933;-57
2021/11/09 05:45:03;;;;;;;1.33;1.23;;;;;;;;;;364279;147;866599;-56
2021/11/09 05:46:05;;;;;;;3.06;1.55;;;;;;;;;;363351;146;857125;-55
2021/11/09 05:47:07;;;;;;;2.04;1.54;;;;;;;;;;362995;147;857427;-57
2021/11/09 05:48:08;;;;;;;4.01;1.72;;;;;;;;;;362225;147;857314;-59
2021/11/09 05:49:11;;;;;;;1.81;1.54;;;;;;;;;;364203;147;863130;-57
2021/11/09 05:50:13;;;;;;;1.75;1.49;;;;;;;;;;360050;147;859940;-56
2021/11/09 05:51:14;;;;;;;4.53;1.65;;;;;;;;;;364137;146;866211;-56
2021/11/09 05:52:16;;;;;;;1.97;1.50;;;;;;;;;;362547;147;857374;-55
2021/11/09 05:53:17;;;;;;;2.47;1.46;;;;;;;;;;358010;147;857488;-57
2021/11/09 05:54:19;;;;;;;3.69;1.75;;;;;;;;;;363294;146;858405;-57
2021/11/09 05:55:21;;;;;;;2.89;1.84;;;;;;;;;;362281;146;864587;-56
2021/11/09 05:56:23;;;;;;;2.67;1.80;;;;;;;;;;362346;147;864931;-56
2021/11/09 05:57:24;;;;;;;3.04;1.84;;;;;;;;;;361563;147;857159;-58
2021/11/09 05:58:26;;;;;;;3.24;2.03;;;;;;;;;;363546;146;865612;-59
2021/11/09 05:59:28;;;;;;;3.41;2.07;;;;;;;;;;361048;146;859378;-58
2021/11/09 06:00:30;;;;;;;3.32;1.75;;;;;;;;;;360945;147;859687;-56
2021/11/09 06:01:31;;;;;;;3.06;2.06;;;;;;;;;;361756;147;858631;-54
2021/11/09 06:02:33;;;;;;;1.93;1.78;;;;;;;;;;363534;146;858079;-55
2021/11/09 06:03:35;;;;;;;3.09;2.15;;;;;;;;;;360965;147;865451;-54
2021/11/09 07:04:00;;;;;;;2.57;1.88;;;;;;;2.03;70.44;100585.73;375213;142;881016;-56
2021/11/09 07:05:02;;;;;;;2.56;2.11;;;;;;;1.93;70.76;100589.64;370041;144;857209;-56
2021/11/09 07:06:05;;;;;;;4.74;1.91;;;;;;;1.98;70.83;100602.56;367787;144;857860;-56
2021/11/09 07:07:07;;;;;;;1.61;1.47;;;;;;;2.07;70.60;100599.50;366893;144;859833;-55
2021/11/09 07:08:09;;;;;;;2.47;1.44;;;;;;;2.15;70.25;100604.09;366120;147;859513;-55
2021/11/09 07:09:11;;;;;;;1.44;1.31;;;;;;;2.23;69.96;100603.50;368535;144;859404;-56
2021/11/09 07:10:13;;;;;;;1.80;1.49;;;;;;;2.36;69.61;100608.24;366064;144;858211;-56
2021/11/09 07:11:14;;;;;;;2.41;1.54;;;;;;;2.56;68.82;100613.19;369680;144;857945;-56
2021/11/09 07:12:16;;;;;;;1.78;1.36;;;;;;;2.75;68.12;100610.46;371788;144;866852;-53
2021/11/09 07:13:18;;;;;;;2.23;1.73;;;;;;;;;;365834;144;864998;-55
2021/11/09 07:14:20;;;;;;;2.86;1.55;;;;;;;;;;365877;144;858926;-56
2021/11/09 07:15:22;;;;;;;1.73;1.55;;;;;;;;;;369205;144;858915;-55
2021/11/09 07:16:24;;;;;;;2.23;1.59;;;;;;;;;;366305;144;858328;-55
2021/11/09 07:17:26;;;;;;;2.47;1.87;;;;;;;;;;366847;144;857310;-54
2021/11/09 07:18:27;;;;;;;2.10;1.75;;;;;;;;;;365979;147;857415;-55
2021/11/09 07:19:30;;;;;;;2.91;1.86;;;;;;;;;;367666;144;866888;-55
2021/11/09 07:20:32;;;;;;;8.63;2.39;;;;;;;;;;361993;144;866449;-54
2021/11/09 07:21:34;;;;;;;1.93;1.59;;;;;;;;;;363894;147;858728;-56
2021/11/09 07:22:36;;;;;;;2.44;1.59;;;;;;;;;;365029;147;857271;-58
2021/11/09 07:23:37;;;;;;;2.79;1.53;;;;;;;;;;361887;147;857260;-53
2021/11/09 07:24:39;;;;;;;4.81;2.79;;;;;;;;;;362936;147;869004;-54
2021/11/09 07:25:42;;;;;;;2.80;2.11;;;;;;;;;;361804;147;857995;-54
2021/11/09 07:26:44;;;;;;;2.69;1.80;;;;;;;;;;361441;147;857392;-55
2021/11/09 07:27:46;;;;;;;4.08;1.34;;;;;;;;;;363097;146;857468;-56
2021/11/09 07:28:47;;;;;;;2.12;1.20;;;;;;;;;;362460;147;857860;-55
2021/11/09 07:29:50;;;;;;;3.28;1.29;;;;;;;;;;361038;147;866803;-55
2021/11/09 07:30:58;;;;;;;1.67;1.48;;;;;;;;;;361182;146;859314;-55
2021/11/09 07:31:58;;;;;;;1.84;1.04;;;;;;;;;;362292;146;859111;-55
2021/11/09 07:33:01;;;;;;;2.63;1.53;;;;;;;;;;362329;147;857828;-55
2021/11/09 07:34:02;;;;;;;1.85;1.19;;;;;;;;;;363603;147;857318;-55
2021/11/09 07:35:05;;;;;;;1.86;1.40;;;;;;;;;;363238;146;857852;-55
2021/11/09 07:36:07;;;;;;;1.90;1.45;;;;;;;;;;361472;147;868353;-56
2021/11/09 07:37:09;;;;;;;2.67;1.67;;;;;;;;;;362649;147;865264;-54
2021/11/09 07:38:12;;;;;;;1.62;1.42;;;;;;;;;;361797;146;858170;-56
2021/11/09 07:39:14;;;;;;;4.54;1.27;;;;;;;;;;362925;147;858290;-56
2021/11/09 07:40:16;;;;;;;2.92;1.37;;;;;;;;;;363210;147;859348;-56
2021/11/09 07:41:18;;;;;;;1.86;1.64;;;;;;;;;;362013;146;866015;-56
2021/11/09 07:42:20;;;;;;;5.12;1.95;;;;;;;;;;362699;146;865822;-57
2021/11/09 07:43:23;;;;;;;1.61;1.30;;;;;;;;;;361743;147;859579;-56
2021/11/09 07:44:25;;;;;;;2.59;1.56;;;;;;;;;;363650;147;857825;-57
2021/11/09 07:45:26;;;;;;;1.93;1.53;;;;;;;;;;362687;146;865082;-57
2021/11/09 07:46:29;;;;;;;2.83;1.51;;;;;;;;;;363200;147;864975;-57
2021/11/09 07:47:31;;;;;;;2.01;1.56;;;;;;;;;;361991;147;860575;-57
2021/11/09 07:48:33;;;;;;;1.34;1.24;;;;;;;;;;362141;146;858679;-56
2021/11/09 07:49:35;;;;;;;2.33;1.43;;;;;;;;;;363817;147;863989;-57
2021/11/09 07:50:37;;;;;;;2.75;1.35;;;;;;;;;;362823;147;857303;-55
2021/11/09 07:51:39;;;;;;;1.66;1.56;;;;;;;;;;362917;147;858985;-57
2021/11/09 07:52:42;;;;;;;2.74;1.42;;;;;;;;;;361407;146;865846;-56
2021/11/09 07:53:44;;;;;;;2.77;1.52;;;;;;;;;;362716;147;859973;-57
2021/11/09 07:54:49;;;;;;;1.81;1.45;;;;;;;;;;363428;147;860218;-56
2021/11/09 07:55:52;;;;;;;5.47;1.34;;;;;;;;;;361738;146;857257;-57
2021/11/09 07:57:06;;;;;;;4.11;1.55;;;;;;;;;;360458;147;857888;-56
2021/11/09 07:58:11;;;;;;;1.80;1.38;;;;;;;;;;361980;147;860200;-55
2021/11/09 08:00:24;;;;;;;1.79;1.51;;;;;;;;;;362519;146;866555;-58
2021/11/09 08:01:33;;;;;;;1.81;1.37;;;;;;;;;;357037;149;857299;-54
2021/11/09 08:02:46;;;;;;;1.32;1.11;;;;;;;;;;358256;147;858594;-55
2021/11/09 08:03:47;;;;;;;3.89;1.12;;;;;;;;;;358865;147;857344;-55
2021/11/09 08:04:55;;;;;;;2.10;1.14;;;;;;;;;;360378;147;858887;-55
2021/11/09 08:07:02;;;;;;;1.83;1.60;;;;;;;;;;362499;146;859181;-56
2021/11/09 08:08:08;;;;;;;2.00;1.61;;;;;;;;;;359618;147;859001;-55
2021/11/09 08:09:14;;;;;;;1.70;1.51;;;;;;;;;;360173;147;859309;-56
2021/11/09 08:10:15;;;;;;;;;;;;;;;;;;365549;147;856485;-56
2021/11/09 08:11:17;;;;;;;1.80;1.15;;;;;;;;;;363202;147;857213;-56
2021/11/09 08:12:18;;;;;;;1.45;1.22;;;;;;;;;;363542;147;859710;-56
2021/11/09 08:13:20;;;;;;;4.24;2.35;;;;;;;;;;363236;147;859294;-55
2021/11/09 08:14:22;;;;;;;3.96;2.20;;;;;;;;;;361030;146;864811;-55